sensor_id;sensor_type;location;lat;lon;timestamp;temperature;humidity
57218;DHT22;43078;52.972;6.482;2022-11-09T00:02:06;12.90;99.70
57218;DHT22;43078;52.972;6.482;2022-11-09T00:04:32;12.90;99.80
57218;DHT22;43078;52.972;6.482;2022-11-09T00:06:58;12.90;99.80
57218;DHT22;43078;52.972;6.482;2022-11-09T00:09:23;12.90;99.80
57218;DHT22;43078;52.972;6.482;2022-11-09T00:11:49;12.90;99.80
57218;DHT22;43078;52.972;6.482;2022-11-09T00:14:15;12.90;99.90
57218;DHT22;43078;52.972;6.482;2022-11-09T00:16:41;12.80;99.90
57218;DHT22;43078;52.972;6.482;2022-11-09T00:19:07;12.90;99.90
57218;DHT22;43078;52.972;6.482;2022-11-09T00:21:33;12.80;99.90
57218;DHT22;43078;52.972;6.482;2022-11-09T00:23:58;12.90;99.90
57218;DHT22;43078;52.972;6.482;2022-11-09T00:26:24;12.80;99.90
57218;DHT22;43078;52.972;6.482;2022-11-09T00:28:50;12.80;99.90
57218;DHT22;43078;52.972;6.482;2022-11-09T00:31:19;12.80;99.90
57218;DHT22;43078;52.972;6.482;2022-11-09T00:33:53;12.80;99.90
57218;DHT22;43078;52.972;6.482;2022-11-09T00:36:22;12.80;99.90
57218;DHT22;43078;52.972;6.482;2022-11-09T00:38:52;12.80;99.90
57218;DHT22;43078;52.972;6.482;2022-11-09T00:41:19;12.80;99.90
57218;DHT22;43078;52.972;6.482;2022-11-09T00:43:45;12.80;99.90
57218;DHT22;43078;52.972;6.482;2022-11-09T00:46:11;12.80;99.90
57218;DHT22;43078;52.972;6.482;2022-11-09T00:48:37;12.80;99.90
57218;DHT22;43078;52.972;6.482;2022-11-09T00:51:04;12.80;99.90
57218;DHT22;43078;52.972;6.482;2022-11-09T00:53:30;12.80;99.90
57218;DHT22;43078;52.972;6.482;2022-11-09T00:58:26;12.80;99.90
57218;DHT22;43078;52.972;6.482;2022-11-09T01:00:54;12.80;99.90
57218;DHT22;43078;52.972;6.482;2022-11-09T01:03:20;12.80;99.90
57218;DHT22;43078;52.972;6.482;2022-11-09T01:05:47;12.80;99.90
57218;DHT22;43078;52.972;6.482;2022-11-09T01:08:12;12.80;99.90
57218;DHT22;43078;52.972;6.482;2022-11-09T01:10:43;12.80;99.90
57218;DHT22;43078;52.972;6.482;2022-11-09T01:13:10;12.80;99.90
57218;DHT22;43078;52.972;6.482;2022-11-09T01:15:47;12.80;99.90
57218;DHT22;43078;52.972;6.482;2022-11-09T01:18:14;12.80;99.90
57218;DHT22;43078;52.972;6.482;2022-11-09T01:20:45;12.80;99.90
57218;DHT22;43078;52.972;6.482;2022-11-09T01:23:12;12.80;99.90
57218;DHT22;43078;52.972;6.482;2022-11-09T01:25:39;12.80;99.90
57218;DHT22;43078;52.972;6.482;2022-11-09T01:28:06;12.80;99.90
57218;DHT22;43078;52.972;6.482;2022-11-09T01:30:37;12.80;99.90
57218;DHT22;43078;52.972;6.482;2022-11-09T01:33:04;12.80;99.90
57218;DHT22;43078;52.972;6.482;2022-11-09T01:35:32;12.80;99.90
57218;DHT22;43078;52.972;6.482;2022-11-09T01:37:58;12.80;99.90
57218;DHT22;43078;52.972;6.482;2022-11-09T01:40:25;12.80;99.90
57218;DHT22;43078;52.972;6.482;2022-11-09T01:42:51;12.80;99.90
57218;DHT22;43078;52.972;6.482;2022-11-09T01:47:46;12.80;99.80
57218;DHT22;43078;52.972;6.482;2022-11-09T01:50:17;12.80;99.80
57218;DHT22;43078;52.972;6.482;2022-11-09T01:52:46;12.80;99.80
57218;DHT22;43078;52.972;6.482;2022-11-09T01:55:16;12.80;99.80
57218;DHT22;43078;52.972;6.482;2022-11-09T01:57:56;12.80;99.80
57218;DHT22;43078;52.972;6.482;2022-11-09T02:00:23;12.80;99.80
57218;DHT22;43078;52.972;6.482;2022-11-09T02:02:56;12.80;99.80
57218;DHT22;43078;52.972;6.482;2022-11-09T02:05:28;12.80;99.80
57218;DHT22;43078;52.972;6.482;2022-11-09T02:07:55;12.80;99.80
57218;DHT22;43078;52.972;6.482;2022-11-09T02:12:52;12.80;99.80
57218;DHT22;43078;52.972;6.482;2022-11-09T02:15:20;12.80;99.80
57218;DHT22;43078;52.972;6.482;2022-11-09T02:17:50;12.80;99.80
57218;DHT22;43078;52.972;6.482;2022-11-09T02:20:16;12.70;99.80
57218;DHT22;43078;52.972;6.482;2022-11-09T02:22:42;12.80;99.80
57218;DHT22;43078;52.972;6.482;2022-11-09T02:25:10;12.80;99.80
57218;DHT22;43078;52.972;6.482;2022-11-09T02:27:36;12.70;99.80
57218;DHT22;43078;52.972;6.482;2022-11-09T02:30:03;12.70;99.80
57218;DHT22;43078;52.972;6.482;2022-11-09T02:32:29;12.70;99.80
57218;DHT22;43078;52.972;6.482;2022-11-09T02:34:55;12.70;99.80
57218;DHT22;43078;52.972;6.482;2022-11-09T02:39:54;12.70;99.80
57218;DHT22;43078;52.972;6.482;2022-11-09T02:42:22;12.70;99.80
57218;DHT22;43078;52.972;6.482;2022-11-09T02:44:54;12.70;99.80
57218;DHT22;43078;52.972;6.482;2022-11-09T02:47:21;12.70;99.80
57218;DHT22;43078;52.972;6.482;2022-11-09T02:49:46;12.70;99.70
57218;DHT22;43078;52.972;6.482;2022-11-09T02:52:12;12.60;99.70
57218;DHT22;43078;52.972;6.482;2022-11-09T02:54:38;12.60;99.70
57218;DHT22;43078;52.972;6.482;2022-11-09T02:57:03;12.60;99.70
57218;DHT22;43078;52.972;6.482;2022-11-09T02:59:29;12.60;99.70
57218;DHT22;43078;52.972;6.482;2022-11-09T03:01:54;12.60;99.70
57218;DHT22;43078;52.972;6.482;2022-11-09T03:04:20;12.60;99.70
57218;DHT22;43078;52.972;6.482;2022-11-09T03:06:46;12.60;99.70
57218;DHT22;43078;52.972;6.482;2022-11-09T03:09:12;12.60;99.70
57218;DHT22;43078;52.972;6.482;2022-11-09T03:11:39;12.60;99.70
57218;DHT22;43078;52.972;6.482;2022-11-09T03:14:05;12.50;99.70
57218;DHT22;43078;52.972;6.482;2022-11-09T03:16:30;12.60;99.70
57218;DHT22;43078;52.972;6.482;2022-11-09T03:18:56;12.50;99.70
57218;DHT22;43078;52.972;6.482;2022-11-09T03:21:23;12.50;99.70
57218;DHT22;43078;52.972;6.482;2022-11-09T03:23:49;12.50;99.70
57218;DHT22;43078;52.972;6.482;2022-11-09T03:26:15;12.50;99.70
57218;DHT22;43078;52.972;6.482;2022-11-09T03:28:40;12.50;99.70
57218;DHT22;43078;52.972;6.482;2022-11-09T03:31:07;12.40;99.70
57218;DHT22;43078;52.972;6.482;2022-11-09T03:33:34;12.40;99.70
57218;DHT22;43078;52.972;6.482;2022-11-09T03:35:59;12.40;99.70
57218;DHT22;43078;52.972;6.482;2022-11-09T03:38:25;12.40;99.60
57218;DHT22;43078;52.972;6.482;2022-11-09T03:40:51;12.50;99.60
57218;DHT22;43078;52.972;6.482;2022-11-09T03:43:17;12.40;99.60
57218;DHT22;43078;52.972;6.482;2022-11-09T03:45:42;12.40;99.60
57218;DHT22;43078;52.972;6.482;2022-11-09T03:48:08;12.40;99.50
57218;DHT22;43078;52.972;6.482;2022-11-09T03:50:34;12.40;99.50
57218;DHT22;43078;52.972;6.482;2022-11-09T03:53:00;12.40;99.50
57218;DHT22;43078;52.972;6.482;2022-11-09T03:55:27;12.40;99.60
57218;DHT22;43078;52.972;6.482;2022-11-09T03:57:53;12.40;99.60
57218;DHT22;43078;52.972;6.482;2022-11-09T04:00:21;12.40;99.60
57218;DHT22;43078;52.972;6.482;2022-11-09T04:02:47;12.30;99.60
57218;DHT22;43078;52.972;6.482;2022-11-09T04:05:13;12.30;99.60
57218;DHT22;43078;52.972;6.482;2022-11-09T04:07:40;12.40;99.60
57218;DHT22;43078;52.972;6.482;2022-11-09T04:10:10;12.30;99.60
57218;DHT22;43078;52.972;6.482;2022-11-09T04:12:36;12.30;99.70
57218;DHT22;43078;52.972;6.482;2022-11-09T04:15:01;12.30;99.70
57218;DHT22;43078;52.972;6.482;2022-11-09T04:17:27;12.20;99.70
57218;DHT22;43078;52.972;6.482;2022-11-09T04:19:52;12.30;99.80
57218;DHT22;43078;52.972;6.482;2022-11-09T04:22:18;12.30;99.80
57218;DHT22;43078;52.972;6.482;2022-11-09T04:24:43;12.20;99.90
57218;DHT22;43078;52.972;6.482;2022-11-09T04:27:09;12.20;99.90
57218;DHT22;43078;52.972;6.482;2022-11-09T04:29:34;12.20;99.90
57218;DHT22;43078;52.972;6.482;2022-11-09T04:32:00;12.20;99.90
57218;DHT22;43078;52.972;6.482;2022-11-09T04:34:25;12.20;99.90
57218;DHT22;43078;52.972;6.482;2022-11-09T04:36:51;12.20;99.90
57218;DHT22;43078;52.972;6.482;2022-11-09T04:39:16;12.20;99.90
57218;DHT22;43078;52.972;6.482;2022-11-09T04:41:42;12.20;99.90
57218;DHT22;43078;52.972;6.482;2022-11-09T04:44:08;12.20;99.90
57218;DHT22;43078;52.972;6.482;2022-11-09T04:46:33;12.20;99.90
57218;DHT22;43078;52.972;6.482;2022-11-09T04:48:59;12.10;99.90
57218;DHT22;43078;52.972;6.482;2022-11-09T04:51:24;12.10;99.90
57218;DHT22;43078;52.972;6.482;2022-11-09T04:53:51;12.10;99.90
57218;DHT22;43078;52.972;6.482;2022-11-09T04:56:16;12.20;99.90
57218;DHT22;43078;52.972;6.482;2022-11-09T04:58:42;12.10;99.90
57218;DHT22;43078;52.972;6.482;2022-11-09T05:01:13;12.10;99.90
57218;DHT22;43078;52.972;6.482;2022-11-09T05:03:39;12.10;99.90
57218;DHT22;43078;52.972;6.482;2022-11-09T05:06:05;12.10;99.90
57218;DHT22;43078;52.972;6.482;2022-11-09T05:08:50;12.20;99.90
57218;DHT22;43078;52.972;6.482;2022-11-09T05:11:16;12.20;99.90
57218;DHT22;43078;52.972;6.482;2022-11-09T05:13:41;12.20;99.90
57218;DHT22;43078;52.972;6.482;2022-11-09T05:16:07;12.20;99.90
57218;DHT22;43078;52.972;6.482;2022-11-09T05:18:33;12.20;99.90
57218;DHT22;43078;52.972;6.482;2022-11-09T05:20:59;12.20;99.90
57218;DHT22;43078;52.972;6.482;2022-11-09T05:23:25;12.30;99.90
57218;DHT22;43078;52.972;6.482;2022-11-09T05:26:09;12.30;99.90
57218;DHT22;43078;52.972;6.482;2022-11-09T05:28:35;12.30;99.90
57218;DHT22;43078;52.972;6.482;2022-11-09T05:31:00;12.30;99.90
57218;DHT22;43078;52.972;6.482;2022-11-09T05:33:26;12.30;99.90
57218;DHT22;43078;52.972;6.482;2022-11-09T05:35:55;12.30;99.90
57218;DHT22;43078;52.972;6.482;2022-11-09T05:38:22;12.30;99.90
57218;DHT22;43078;52.972;6.482;2022-11-09T05:40:49;12.30;99.90
57218;DHT22;43078;52.972;6.482;2022-11-09T05:43:15;12.30;99.90
57218;DHT22;43078;52.972;6.482;2022-11-09T05:45:41;12.30;99.90
57218;DHT22;43078;52.972;6.482;2022-11-09T05:48:07;12.30;99.90
57218;DHT22;43078;52.972;6.482;2022-11-09T05:50:33;12.30;99.90
57218;DHT22;43078;52.972;6.482;2022-11-09T05:52:59;12.30;99.90
57218;DHT22;43078;52.972;6.482;2022-11-09T05:55:25;12.30;99.90
57218;DHT22;43078;52.972;6.482;2022-11-09T05:57:51;12.30;99.90
57218;DHT22;43078;52.972;6.482;2022-11-09T06:00:17;12.30;99.90
57218;DHT22;43078;52.972;6.482;2022-11-09T06:02:42;12.20;99.90
57218;DHT22;43078;52.972;6.482;2022-11-09T06:05:08;12.20;99.90
57218;DHT22;43078;52.972;6.482;2022-11-09T06:07:34;12.20;99.90
57218;DHT22;43078;52.972;6.482;2022-11-09T06:10:00;12.20;99.90
57218;DHT22;43078;52.972;6.482;2022-11-09T06:12:25;12.20;99.90
57218;DHT22;43078;52.972;6.482;2022-11-09T06:14:51;12.10;99.90
57218;DHT22;43078;52.972;6.482;2022-11-09T06:17:17;12.10;99.90
57218;DHT22;43078;52.972;6.482;2022-11-09T06:19:42;12.10;99.90
57218;DHT22;43078;52.972;6.482;2022-11-09T06:22:08;12.10;99.90
57218;DHT22;43078;52.972;6.482;2022-11-09T06:24:34;12.10;99.90
57218;DHT22;43078;52.972;6.482;2022-11-09T06:26:59;12.00;99.90
57218;DHT22;43078;52.972;6.482;2022-11-09T06:29:25;12.10;99.90
57218;DHT22;43078;52.972;6.482;2022-11-09T06:31:51;12.00;99.90
57218;DHT22;43078;52.972;6.482;2022-11-09T06:34:16;12.00;99.90
57218;DHT22;43078;52.972;6.482;2022-11-09T06:36:42;12.00;99.90
57218;DHT22;43078;52.972;6.482;2022-11-09T06:39:08;12.00;99.90
57218;DHT22;43078;52.972;6.482;2022-11-09T06:41:34;12.00;99.90
57218;DHT22;43078;52.972;6.482;2022-11-09T06:44:00;12.00;99.90
57218;DHT22;43078;52.972;6.482;2022-11-09T06:46:25;12.00;99.90
57218;DHT22;43078;52.972;6.482;2022-11-09T06:48:51;12.00;99.90
57218;DHT22;43078;52.972;6.482;2022-11-09T06:51:17;12.00;99.90
57218;DHT22;43078;52.972;6.482;2022-11-09T06:53:43;12.00;99.90
57218;DHT22;43078;52.972;6.482;2022-11-09T06:56:09;12.00;99.90
57218;DHT22;43078;52.972;6.482;2022-11-09T06:58:35;12.00;99.90
57218;DHT22;43078;52.972;6.482;2022-11-09T07:01:11;12.00;99.90
57218;DHT22;43078;52.972;6.482;2022-11-09T07:03:38;12.00;99.90
57218;DHT22;43078;52.972;6.482;2022-11-09T07:06:06;12.00;99.90
57218;DHT22;43078;52.972;6.482;2022-11-09T07:08:33;12.00;99.90
57218;DHT22;43078;52.972;6.482;2022-11-09T07:11:04;12.00;99.90
57218;DHT22;43078;52.972;6.482;2022-11-09T07:13:30;12.00;99.90
57218;DHT22;43078;52.972;6.482;2022-11-09T07:15:55;12.00;99.90
57218;DHT22;43078;52.972;6.482;2022-11-09T07:18:21;12.00;99.90
57218;DHT22;43078;52.972;6.482;2022-11-09T07:20:46;11.90;99.90
57218;DHT22;43078;52.972;6.482;2022-11-09T07:23:12;11.90;99.90
57218;DHT22;43078;52.972;6.482;2022-11-09T07:25:38;11.90;99.90
57218;DHT22;43078;52.972;6.482;2022-11-09T07:28:05;11.90;99.90
57218;DHT22;43078;52.972;6.482;2022-11-09T07:30:32;11.90;99.90
57218;DHT22;43078;52.972;6.482;2022-11-09T07:32:57;11.90;99.90
57218;DHT22;43078;52.972;6.482;2022-11-09T07:35:25;12.00;99.90
57218;DHT22;43078;52.972;6.482;2022-11-09T07:37:51;11.90;99.90
57218;DHT22;43078;52.972;6.482;2022-11-09T07:40:17;11.90;99.90
57218;DHT22;43078;52.972;6.482;2022-11-09T07:42:43;11.90;99.90
57218;DHT22;43078;52.972;6.482;2022-11-09T07:45:09;11.90;99.90
57218;DHT22;43078;52.972;6.482;2022-11-09T07:47:35;11.90;99.90
57218;DHT22;43078;52.972;6.482;2022-11-09T07:50:00;11.90;99.90
57218;DHT22;43078;52.972;6.482;2022-11-09T07:52:26;11.90;99.90
57218;DHT22;43078;52.972;6.482;2022-11-09T07:54:51;11.90;99.90
57218;DHT22;43078;52.972;6.482;2022-11-09T07:57:17;11.90;99.90
57218;DHT22;43078;52.972;6.482;2022-11-09T07:59:43;11.90;99.90
57218;DHT22;43078;52.972;6.482;2022-11-09T08:02:09;11.90;99.90
57218;DHT22;43078;52.972;6.482;2022-11-09T08:04:34;11.90;99.90
57218;DHT22;43078;52.972;6.482;2022-11-09T08:07:00;11.90;99.90
57218;DHT22;43078;52.972;6.482;2022-11-09T08:09:27;11.90;99.90
57218;DHT22;43078;52.972;6.482;2022-11-09T08:11:53;11.90;99.90
57218;DHT22;43078;52.972;6.482;2022-11-09T08:14:18;11.90;99.90
57218;DHT22;43078;52.972;6.482;2022-11-09T08:16:44;11.90;99.90
57218;DHT22;43078;52.972;6.482;2022-11-09T08:19:10;12.00;99.90
57218;DHT22;43078;52.972;6.482;2022-11-09T08:21:36;11.90;99.90
57218;DHT22;43078;52.972;6.482;2022-11-09T08:24:03;12.00;99.90
57218;DHT22;43078;52.972;6.482;2022-11-09T08:26:30;12.00;99.90
57218;DHT22;43078;52.972;6.482;2022-11-09T08:28:55;12.00;99.90
57218;DHT22;43078;52.972;6.482;2022-11-09T08:31:21;12.10;99.90
57218;DHT22;43078;52.972;6.482;2022-11-09T08:33:47;12.00;99.90
57218;DHT22;43078;52.972;6.482;2022-11-09T08:36:16;12.10;99.90
57218;DHT22;43078;52.972;6.482;2022-11-09T08:38:42;12.10;99.90
57218;DHT22;43078;52.972;6.482;2022-11-09T08:41:09;12.10;99.90
57218;DHT22;43078;52.972;6.482;2022-11-09T08:43:35;12.20;99.90
57218;DHT22;43078;52.972;6.482;2022-11-09T08:46:00;12.20;99.90
57218;DHT22;43078;52.972;6.482;2022-11-09T08:48:26;12.20;99.90
57218;DHT22;43078;52.972;6.482;2022-11-09T08:50:55;12.30;99.90
57218;DHT22;43078;52.972;6.482;2022-11-09T08:53:22;12.30;99.90
57218;DHT22;43078;52.972;6.482;2022-11-09T08:55:48;12.30;99.90
57218;DHT22;43078;52.972;6.482;2022-11-09T08:58:14;12.40;99.90
57218;DHT22;43078;52.972;6.482;2022-11-09T09:00:40;12.40;99.90
57218;DHT22;43078;52.972;6.482;2022-11-09T09:03:05;12.40;99.90
57218;DHT22;43078;52.972;6.482;2022-11-09T09:05:35;12.50;99.90
57218;DHT22;43078;52.972;6.482;2022-11-09T09:08:01;12.50;99.90
57218;DHT22;43078;52.972;6.482;2022-11-09T09:10:28;12.50;99.90
57218;DHT22;43078;52.972;6.482;2022-11-09T09:12:54;12.50;99.90
57218;DHT22;43078;52.972;6.482;2022-11-09T09:15:20;12.60;99.90
57218;DHT22;43078;52.972;6.482;2022-11-09T09:17:46;12.60;99.90
57218;DHT22;43078;52.972;6.482;2022-11-09T09:20:12;12.60;99.90
57218;DHT22;43078;52.972;6.482;2022-11-09T09:22:37;12.70;99.90
57218;DHT22;43078;52.972;6.482;2022-11-09T09:25:04;12.70;99.90
57218;DHT22;43078;52.972;6.482;2022-11-09T09:27:30;12.70;99.90
57218;DHT22;43078;52.972;6.482;2022-11-09T09:29:56;12.80;99.90
57218;DHT22;43078;52.972;6.482;2022-11-09T09:32:22;12.80;99.90
57218;DHT22;43078;52.972;6.482;2022-11-09T09:34:47;12.90;99.90
57218;DHT22;43078;52.972;6.482;2022-11-09T09:37:14;12.80;99.80
57218;DHT22;43078;52.972;6.482;2022-11-09T09:39:40;12.90;99.80
57218;DHT22;43078;52.972;6.482;2022-11-09T09:42:11;12.90;99.80
57218;DHT22;43078;52.972;6.482;2022-11-09T09:44:42;12.90;99.70
57218;DHT22;43078;52.972;6.482;2022-11-09T09:50:11;13.00;99.80
57218;DHT22;43078;52.972;6.482;2022-11-09T09:56:17;13.10;99.50
57218;DHT22;43078;52.972;6.482;2022-11-09T10:01:41;13.10;99.40
57218;DHT22;43078;52.972;6.482;2022-11-09T10:04:19;13.20;99.50
57218;DHT22;43078;52.972;6.482;2022-11-09T10:12:38;13.20;99.20
57218;DHT22;43078;52.972;6.482;2022-11-09T10:15:14;13.30;99.40
57218;DHT22;43078;52.972;6.482;2022-11-09T10:18:38;13.30;99.20
57218;DHT22;43078;52.972;6.482;2022-11-09T10:21:38;13.30;99.00
57218;DHT22;43078;52.972;6.482;2022-11-09T10:24:26;13.30;99.10
57218;DHT22;43078;52.972;6.482;2022-11-09T10:26:57;13.30;99.20
57218;DHT22;43078;52.972;6.482;2022-11-09T10:29:30;13.40;99.20
57218;DHT22;43078;52.972;6.482;2022-11-09T10:32:16;13.40;99.10
57218;DHT22;43078;52.972;6.482;2022-11-09T10:37:20;13.40;98.90
57218;DHT22;43078;52.972;6.482;2022-11-09T10:40:02;13.40;98.80
57218;DHT22;43078;52.972;6.482;2022-11-09T10:42:29;13.40;98.60
57218;DHT22;43078;52.972;6.482;2022-11-09T10:44:54;13.50;98.70
57218;DHT22;43078;52.972;6.482;2022-11-09T10:47:20;13.50;98.70
57218;DHT22;43078;52.972;6.482;2022-11-09T10:50:06;13.50;98.70
57218;DHT22;43078;52.972;6.482;2022-11-09T10:52:34;13.60;98.50
57218;DHT22;43078;52.972;6.482;2022-11-09T10:55:26;13.60;98.70
57218;DHT22;43078;52.972;6.482;2022-11-09T10:57:56;13.60;98.50
57218;DHT22;43078;52.972;6.482;2022-11-09T11:00:22;13.70;98.60
57218;DHT22;43078;52.972;6.482;2022-11-09T11:02:47;13.70;98.50
57218;DHT22;43078;52.972;6.482;2022-11-09T11:07:46;13.70;98.40
57218;DHT22;43078;52.972;6.482;2022-11-09T11:15:29;13.80;98.00
57218;DHT22;43078;52.972;6.482;2022-11-09T11:18:10;13.90;98.10
57218;DHT22;43078;52.972;6.482;2022-11-09T11:20:37;13.90;97.90
57218;DHT22;43078;52.972;6.482;2022-11-09T11:23:17;13.90;97.80
57218;DHT22;43078;52.972;6.482;2022-11-09T11:28:28;13.90;97.60
57218;DHT22;43078;52.972;6.482;2022-11-09T11:30:55;13.90;97.50
57218;DHT22;43078;52.972;6.482;2022-11-09T11:33:20;13.90;97.60
57218;DHT22;43078;52.972;6.482;2022-11-09T11:36:01;13.90;97.40
57218;DHT22;43078;52.972;6.482;2022-11-09T11:38:40;14.00;97.20
57218;DHT22;43078;52.972;6.482;2022-11-09T11:47:30;13.90;96.90
57218;DHT22;43078;52.972;6.482;2022-11-09T11:53:06;14.00;97.10
57218;DHT22;43078;52.972;6.482;2022-11-09T11:56:35;14.00;97.20
57218;DHT22;43078;52.972;6.482;2022-11-09T12:10:36;13.90;97.10
57218;DHT22;43078;52.972;6.482;2022-11-09T12:16:12;13.90;97.30
57218;DHT22;43078;52.972;6.482;2022-11-09T12:32:46;13.90;97.20
57218;DHT22;43078;52.972;6.482;2022-11-09T12:40:25;13.90;97.20
57218;DHT22;43078;52.972;6.482;2022-11-09T12:45:40;13.90;97.20
57218;DHT22;43078;52.972;6.482;2022-11-09T12:50:38;13.90;96.90
57218;DHT22;43078;52.972;6.482;2022-11-09T12:53:06;14.00;97.00
57218;DHT22;43078;52.972;6.482;2022-11-09T12:58:35;13.90;96.90
57218;DHT22;43078;52.972;6.482;2022-11-09T13:01:04;13.90;97.10
57218;DHT22;43078;52.972;6.482;2022-11-09T13:03:36;13.90;97.10
57218;DHT22;43078;52.972;6.482;2022-11-09T13:06:18;13.90;97.10
57218;DHT22;43078;52.972;6.482;2022-11-09T13:09:02;13.90;96.60
57218;DHT22;43078;52.972;6.482;2022-11-09T13:11:39;13.90;96.40
57218;DHT22;43078;52.972;6.482;2022-11-09T13:16:51;13.80;96.10
57218;DHT22;43078;52.972;6.482;2022-11-09T13:27:02;13.80;95.70
57218;DHT22;43078;52.972;6.482;2022-11-09T13:29:48;13.80;95.90
57218;DHT22;43078;52.972;6.482;2022-11-09T13:34:51;13.90;95.70
57218;DHT22;43078;52.972;6.482;2022-11-09T13:50:59;13.90;94.60
57218;DHT22;43078;52.972;6.482;2022-11-09T13:53:30;13.90;94.70
57218;DHT22;43078;52.972;6.482;2022-11-09T13:56:25;13.90;94.90
57218;DHT22;43078;52.972;6.482;2022-11-09T13:58:52;13.90;94.90
57218;DHT22;43078;52.972;6.482;2022-11-09T14:01:34;13.90;94.90
57218;DHT22;43078;52.972;6.482;2022-11-09T14:04:00;13.90;94.90
57218;DHT22;43078;52.972;6.482;2022-11-09T14:06:30;13.90;95.00
57218;DHT22;43078;52.972;6.482;2022-11-09T14:08:57;13.90;95.10
57218;DHT22;43078;52.972;6.482;2022-11-09T14:14:23;13.90;95.00
57218;DHT22;43078;52.972;6.482;2022-11-09T14:22:18;13.80;95.00
57218;DHT22;43078;52.972;6.482;2022-11-09T14:24:44;13.80;95.30
57218;DHT22;43078;52.972;6.482;2022-11-09T14:29:51;13.70;95.40
57218;DHT22;43078;52.972;6.482;2022-11-09T14:32:24;13.70;95.50
57218;DHT22;43078;52.972;6.482;2022-11-09T14:34:50;13.70;96.00
57218;DHT22;43078;52.972;6.482;2022-11-09T14:37:16;13.70;96.30
57218;DHT22;43078;52.972;6.482;2022-11-09T14:39:47;13.60;96.50
57218;DHT22;43078;52.972;6.482;2022-11-09T14:42:18;13.60;96.80
57218;DHT22;43078;52.972;6.482;2022-11-09T14:44:45;13.50;97.10
57218;DHT22;43078;52.972;6.482;2022-11-09T14:47:17;13.50;97.40
57218;DHT22;43078;52.972;6.482;2022-11-09T14:49:43;13.50;97.70
57218;DHT22;43078;52.972;6.482;2022-11-09T14:52:16;13.50;97.80
57218;DHT22;43078;52.972;6.482;2022-11-09T14:54:46;13.50;97.90
57218;DHT22;43078;52.972;6.482;2022-11-09T14:57:15;13.40;98.20
57218;DHT22;43078;52.972;6.482;2022-11-09T14:59:43;13.40;98.30
57218;DHT22;43078;52.972;6.482;2022-11-09T15:02:12;13.40;98.40
57218;DHT22;43078;52.972;6.482;2022-11-09T15:04:59;13.30;98.60
57218;DHT22;43078;52.972;6.482;2022-11-09T15:07:32;13.30;98.60
57218;DHT22;43078;52.972;6.482;2022-11-09T15:10:06;13.30;98.90
57218;DHT22;43078;52.972;6.482;2022-11-09T15:12:33;13.30;99.30
57218;DHT22;43078;52.972;6.482;2022-11-09T15:15:03;13.30;99.00
57218;DHT22;43078;52.972;6.482;2022-11-09T15:17:35;13.30;99.00
57218;DHT22;43078;52.972;6.482;2022-11-09T15:22:51;13.20;98.90
57218;DHT22;43078;52.972;6.482;2022-11-09T15:30:41;13.10;99.10
57218;DHT22;43078;52.972;6.482;2022-11-09T15:35:49;13.10;99.10
57218;DHT22;43078;52.972;6.482;2022-11-09T15:38:35;13.10;99.30
57218;DHT22;43078;52.972;6.482;2022-11-09T15:41:08;13.00;99.20
57218;DHT22;43078;52.972;6.482;2022-11-09T15:43:34;13.00;99.50
57218;DHT22;43078;52.972;6.482;2022-11-09T15:46:00;12.90;99.50
57218;DHT22;43078;52.972;6.482;2022-11-09T15:48:26;12.90;99.60
57218;DHT22;43078;52.972;6.482;2022-11-09T15:50:52;12.90;99.70
57218;DHT22;43078;52.972;6.482;2022-11-09T15:53:18;12.90;99.70
57218;DHT22;43078;52.972;6.482;2022-11-09T15:55:44;12.90;99.70
57218;DHT22;43078;52.972;6.482;2022-11-09T15:58:14;12.90;99.70
57218;DHT22;43078;52.972;6.482;2022-11-09T16:00:41;12.80;99.80
57218;DHT22;43078;52.972;6.482;2022-11-09T16:03:08;12.80;99.80
57218;DHT22;43078;52.972;6.482;2022-11-09T16:05:35;12.80;99.70
57218;DHT22;43078;52.972;6.482;2022-11-09T16:08:00;12.80;99.90
57218;DHT22;43078;52.972;6.482;2022-11-09T16:10:26;12.80;99.90
57218;DHT22;43078;52.972;6.482;2022-11-09T16:12:53;12.70;99.90
57218;DHT22;43078;52.972;6.482;2022-11-09T16:15:23;12.70;99.90
57218;DHT22;43078;52.972;6.482;2022-11-09T16:17:51;12.60;99.90
57218;DHT22;43078;52.972;6.482;2022-11-09T16:20:18;12.60;99.90
57218;DHT22;43078;52.972;6.482;2022-11-09T16:22:44;12.60;99.90
57218;DHT22;43078;52.972;6.482;2022-11-09T16:25:10;12.60;99.90
57218;DHT22;43078;52.972;6.482;2022-11-09T16:27:36;12.60;99.90
57218;DHT22;43078;52.972;6.482;2022-11-09T16:30:04;12.50;99.90
57218;DHT22;43078;52.972;6.482;2022-11-09T16:32:30;12.60;99.90
57218;DHT22;43078;52.972;6.482;2022-11-09T16:34:55;12.50;99.90
57218;DHT22;43078;52.972;6.482;2022-11-09T16:37:21;12.50;99.90
57218;DHT22;43078;52.972;6.482;2022-11-09T16:39:48;12.40;99.90
57218;DHT22;43078;52.972;6.482;2022-11-09T16:42:15;12.50;99.90
57218;DHT22;43078;52.972;6.482;2022-11-09T16:44:43;12.40;99.90
57218;DHT22;43078;52.972;6.482;2022-11-09T16:47:14;12.40;99.90
57218;DHT22;43078;52.972;6.482;2022-11-09T16:49:40;12.40;99.90
57218;DHT22;43078;52.972;6.482;2022-11-09T16:52:06;12.40;99.90
57218;DHT22;43078;52.972;6.482;2022-11-09T16:54:31;12.40;99.90
57218;DHT22;43078;52.972;6.482;2022-11-09T16:56:57;12.40;99.90
57218;DHT22;43078;52.972;6.482;2022-11-09T16:59:23;12.40;99.90
57218;DHT22;43078;52.972;6.482;2022-11-09T17:01:56;12.40;99.90
57218;DHT22;43078;52.972;6.482;2022-11-09T17:04:23;12.40;99.90
57218;DHT22;43078;52.972;6.482;2022-11-09T17:06:49;12.40;99.90
57218;DHT22;43078;52.972;6.482;2022-11-09T17:09:15;12.40;99.90
57218;DHT22;43078;52.972;6.482;2022-11-09T17:11:41;12.40;99.90
57218;DHT22;43078;52.972;6.482;2022-11-09T17:14:07;12.40;99.90
57218;DHT22;43078;52.972;6.482;2022-11-09T17:16:33;12.30;99.90
57218;DHT22;43078;52.972;6.482;2022-11-09T17:18:58;12.40;99.90
57218;DHT22;43078;52.972;6.482;2022-11-09T17:21:25;12.30;99.90
57218;DHT22;43078;52.972;6.482;2022-11-09T17:23:52;12.30;99.90
57218;DHT22;43078;52.972;6.482;2022-11-09T17:26:18;12.30;99.90
57218;DHT22;43078;52.972;6.482;2022-11-09T17:28:44;12.30;99.90
57218;DHT22;43078;52.972;6.482;2022-11-09T17:31:15;12.30;99.90
57218;DHT22;43078;52.972;6.482;2022-11-09T17:33:41;12.30;99.90
57218;DHT22;43078;52.972;6.482;2022-11-09T17:36:09;12.30;99.90
57218;DHT22;43078;52.972;6.482;2022-11-09T17:38:38;12.20;99.90
57218;DHT22;43078;52.972;6.482;2022-11-09T17:41:06;12.20;99.90
57218;DHT22;43078;52.972;6.482;2022-11-09T17:43:35;12.20;99.90
57218;DHT22;43078;52.972;6.482;2022-11-09T17:46:12;12.20;99.90
57218;DHT22;43078;52.972;6.482;2022-11-09T17:48:41;12.20;99.90
57218;DHT22;43078;52.972;6.482;2022-11-09T17:51:07;12.20;99.90
57218;DHT22;43078;52.972;6.482;2022-11-09T17:53:34;12.20;99.90
57218;DHT22;43078;52.972;6.482;2022-11-09T17:56:00;12.10;99.90